sensor_id;sensor_type;location;lat;lon;timestamp;P1;durP1;ratioP1;P2;durP2;ratioP2
15240;SDS011;7723;52.170;9.978;2022-07-01T00:02:01;5.82;;;4.57;;
15240;SDS011;7723;52.170;9.978;2022-07-01T00:04:29;7.15;;;5.25;;
15240;SDS011;7723;52.170;9.978;2022-07-01T00:06:56;6.60;;;5.30;;
15240;SDS011;7723;52.170;9.978;2022-07-01T00:09:23;7.85;;;4.50;;
15240;SDS011;7723;52.170;9.978;2022-07-01T00:11:52;5.70;;;5.10;;
15240;SDS011;7723;52.170;9.978;2022-07-01T00:14:20;7.60;;;5.18;;
15240;SDS011;7723;52.170;9.978;2022-07-01T00:16:48;6.35;;;5.32;;
15240;SDS011;7723;52.170;9.978;2022-07-01T00:19:15;6.05;;;4.43;;
15240;SDS011;7723;52.170;9.978;2022-07-01T00:21:43;5.55;;;4.95;;
15240;SDS011;7723;52.170;9.978;2022-07-01T00:24:10;5.65;;;4.97;;
15240;SDS011;7723;52.170;9.978;2022-07-01T00:26:37;5.03;;;4.53;;
15240;SDS011;7723;52.170;9.978;2022-07-01T00:29:04;6.22;;;5.15;;
15240;SDS011;7723;52.170;9.978;2022-07-01T00:31:32;6.45;;;5.50;;
15240;SDS011;7723;52.170;9.978;2022-07-01T00:34:00;5.60;;;5.10;;
15240;SDS011;7723;52.170;9.978;2022-07-01T00:36:27;5.97;;;5.38;;
15240;SDS011;7723;52.170;9.978;2022-07-01T00:38:55;8.27;;;5.63;;
15240;SDS011;7723;52.170;9.978;2022-07-01T00:41:22;8.77;;;7.18;;
15240;SDS011;7723;52.170;9.978;2022-07-01T00:43:49;8.48;;;6.88;;
15240;SDS011;7723;52.170;9.978;2022-07-01T00:46:17;8.60;;;7.57;;
15240;SDS011;7723;52.170;9.978;2022-07-01T00:48:46;14.20;;;7.70;;
15240;SDS011;7723;52.170;9.978;2022-07-01T00:51:13;9.45;;;7.82;;
15240;SDS011;7723;52.170;9.978;2022-07-01T00:53:40;10.30;;;8.27;;
15240;SDS011;7723;52.170;9.978;2022-07-01T00:56:07;10.63;;;7.95;;
15240;SDS011;7723;52.170;9.978;2022-07-01T00:58:34;10.23;;;8.80;;
15240;SDS011;7723;52.170;9.978;2022-07-01T01:01:02;10.57;;;8.45;;
15240;SDS011;7723;52.170;9.978;2022-07-01T01:03:29;9.30;;;7.32;;
15240;SDS011;7723;52.170;9.978;2022-07-01T01:05:58;8.45;;;7.25;;
15240;SDS011;7723;52.170;9.978;2022-07-01T01:08:26;9.05;;;7.18;;
15240;SDS011;7723;52.170;9.978;2022-07-01T01:10:53;8.25;;;7.05;;
15240;SDS011;7723;52.170;9.978;2022-07-01T01:13:20;8.70;;;6.65;;
15240;SDS011;7723;52.170;9.978;2022-07-01T01:15:47;6.40;;;5.78;;
15240;SDS011;7723;52.170;9.978;2022-07-01T01:18:14;10.73;;;7.00;;
15240;SDS011;7723;52.170;9.978;2022-07-01T01:20:43;6.90;;;6.20;;
15240;SDS011;7723;52.170;9.978;2022-07-01T01:23:10;7.55;;;6.60;;
15240;SDS011;7723;52.170;9.978;2022-07-01T01:25:37;8.23;;;6.13;;
15240;SDS011;7723;52.170;9.978;2022-07-01T01:28:04;6.57;;;5.88;;
15240;SDS011;7723;52.170;9.978;2022-07-01T01:30:31;8.57;;;5.97;;
15240;SDS011;7723;52.170;9.978;2022-07-01T01:33:01;6.53;;;5.60;;
15240;SDS011;7723;52.170;9.978;2022-07-01T01:35:28;9.38;;;6.38;;
15240;SDS011;7723;52.170;9.978;2022-07-01T01:37:58;5.65;;;5.05;;
15240;SDS011;7723;52.170;9.978;2022-07-01T01:40:25;4.97;;;4.40;;
15240;SDS011;7723;52.170;9.978;2022-07-01T01:42:52;6.78;;;5.47;;
15240;SDS011;7723;52.170;9.978;2022-07-01T01:45:19;4.88;;;4.15;;
15240;SDS011;7723;52.170;9.978;2022-07-01T01:47:47;5.18;;;4.65;;
15240;SDS011;7723;52.170;9.978;2022-07-01T01:50:14;5.82;;;4.97;;
15240;SDS011;7723;52.170;9.978;2022-07-01T01:52:42;6.10;;;5.30;;
15240;SDS011;7723;52.170;9.978;2022-07-01T01:55:11;6.20;;;5.60;;
15240;SDS011;7723;52.170;9.978;2022-07-01T01:57:38;6.25;;;4.57;;
15240;SDS011;7723;52.170;9.978;2022-07-01T02:00:06;5.15;;;4.18;;
15240;SDS011;7723;52.170;9.978;2022-07-01T02:02:34;5.93;;;4.40;;
15240;SDS011;7723;52.170;9.978;2022-07-01T02:05:02;5.28;;;4.63;;
15240;SDS011;7723;52.170;9.978;2022-07-01T02:07:30;4.50;;;4.10;;
15240;SDS011;7723;52.170;9.978;2022-07-01T02:09:57;4.82;;;4.32;;
15240;SDS011;7723;52.170;9.978;2022-07-01T02:12:26;6.07;;;4.43;;
15240;SDS011;7723;52.170;9.978;2022-07-01T02:14:53;4.45;;;3.97;;
15240;SDS011;7723;52.170;9.978;2022-07-01T02:17:20;4.18;;;3.78;;
15240;SDS011;7723;52.170;9.978;2022-07-01T02:19:47;4.47;;;4.00;;
15240;SDS011;7723;52.170;9.978;2022-07-01T02:22:14;5.53;;;3.72;;
15240;SDS011;7723;52.170;9.978;2022-07-01T02:24:41;3.60;;;3.22;;
15240;SDS011;7723;52.170;9.978;2022-07-01T02:27:09;4.30;;;3.22;;
15240;SDS011;7723;52.170;9.978;2022-07-01T02:29:39;4.65;;;3.00;;
15240;SDS011;7723;52.170;9.978;2022-07-01T02:32:07;3.60;;;3.08;;
15240;SDS011;7723;52.170;9.978;2022-07-01T02:34:35;3.45;;;2.28;;
15240;SDS011;7723;52.170;9.978;2022-07-01T02:37:02;2.08;;;1.85;;
15240;SDS011;7723;52.170;9.978;2022-07-01T02:39:30;2.17;;;1.30;;
15240;SDS011;7723;52.170;9.978;2022-07-01T02:41:58;1.00;;;0.90;;
15240;SDS011;7723;52.170;9.978;2022-07-01T02:44:43;1.10;;;0.75;;
15240;SDS011;7723;52.170;9.978;2022-07-01T02:47:11;1.40;;;0.80;;
15240;SDS011;7723;52.170;9.978;2022-07-01T02:49:38;0.65;;;0.63;;
15240;SDS011;7723;52.170;9.978;2022-07-01T02:52:05;2.08;;;0.80;;
15240;SDS011;7723;52.170;9.978;2022-07-01T02:54:32;1.17;;;0.63;;
15240;SDS011;7723;52.170;9.978;2022-07-01T02:57:00;0.90;;;0.77;;
15240;SDS011;7723;52.170;9.978;2022-07-01T02:59:27;0.90;;;0.80;;
15240;SDS011;7723;52.170;9.978;2022-07-01T03:01:56;1.35;;;1.20;;
15240;SDS011;7723;52.170;9.978;2022-07-01T03:04:23;1.42;;;1.02;;
15240;SDS011;7723;52.170;9.978;2022-07-01T03:06:50;1.13;;;1.02;;
15240;SDS011;7723;52.170;9.978;2022-07-01T03:09:17;1.63;;;1.30;;
15240;SDS011;7723;52.170;9.978;2022-07-01T03:11:45;2.38;;;1.50;;
15240;SDS011;7723;52.170;9.978;2022-07-01T03:14:12;2.00;;;1.80;;
15240;SDS011;7723;52.170;9.978;2022-07-01T03:16:39;1.60;;;1.50;;
15240;SDS011;7723;52.170;9.978;2022-07-01T03:19:08;1.90;;;1.70;;
15240;SDS011;7723;52.170;9.978;2022-07-01T03:21:35;2.85;;;1.75;;
15240;SDS011;7723;52.170;9.978;2022-07-01T03:24:02;2.83;;;1.50;;
15240;SDS011;7723;52.170;9.978;2022-07-01T03:26:29;3.35;;;1.80;;
15240;SDS011;7723;52.170;9.978;2022-07-01T03:28:56;2.53;;;1.70;;
15240;SDS011;7723;52.170;9.978;2022-07-01T03:31:24;1.70;;;1.40;;
15240;SDS011;7723;52.170;9.978;2022-07-01T03:33:51;2.40;;;1.50;;
15240;SDS011;7723;52.170;9.978;2022-07-01T03:36:19;2.97;;;1.65;;
15240;SDS011;7723;52.170;9.978;2022-07-01T03:38:46;2.47;;;1.40;;
15240;SDS011;7723;52.170;9.978;2022-07-01T03:41:14;2.55;;;1.33;;
15240;SDS011;7723;52.170;9.978;2022-07-01T03:43:41;2.08;;;1.23;;
15240;SDS011;7723;52.170;9.978;2022-07-01T03:46:08;2.95;;;1.17;;
15240;SDS011;7723;52.170;9.978;2022-07-01T03:48:37;1.92;;;1.10;;
15240;SDS011;7723;52.170;9.978;2022-07-01T03:51:05;2.53;;;1.35;;
15240;SDS011;7723;52.170;9.978;2022-07-01T03:53:33;3.20;;;1.50;;
15240;SDS011;7723;52.170;9.978;2022-07-01T03:56:18;3.47;;;1.30;;
15240;SDS011;7723;52.170;9.978;2022-07-01T03:58:45;1.70;;;1.52;;
15240;SDS011;7723;52.170;9.978;2022-07-01T04:01:12;2.10;;;1.60;;
15240;SDS011;7723;52.170;9.978;2022-07-01T04:03:39;1.70;;;1.50;;
15240;SDS011;7723;52.170;9.978;2022-07-01T04:06:06;2.78;;;1.70;;
15240;SDS011;7723;52.170;9.978;2022-07-01T04:08:35;1.45;;;1.33;;
15240;SDS011;7723;52.170;9.978;2022-07-01T04:11:02;2.08;;;1.48;;
15240;SDS011;7723;52.170;9.978;2022-07-01T04:13:30;3.03;;;1.50;;
15240;SDS011;7723;52.170;9.978;2022-07-01T04:15:57;3.00;;;1.80;;
15240;SDS011;7723;52.170;9.978;2022-07-01T04:18:25;8.65;;;1.55;;
15240;SDS011;7723;52.170;9.978;2022-07-01T04:20:53;2.25;;;1.70;;
15240;SDS011;7723;52.170;9.978;2022-07-01T04:23:39;2.42;;;1.45;;
15240;SDS011;7723;52.170;9.978;2022-07-01T04:26:06;3.47;;;1.55;;
15240;SDS011;7723;52.170;9.978;2022-07-01T04:28:33;3.03;;;1.70;;
15240;SDS011;7723;52.170;9.978;2022-07-01T04:31:00;1.90;;;1.70;;
15240;SDS011;7723;52.170;9.978;2022-07-01T04:33:27;2.55;;;1.30;;
15240;SDS011;7723;52.170;9.978;2022-07-01T04:35:54;2.58;;;1.58;;
15240;SDS011;7723;52.170;9.978;2022-07-01T04:38:21;1.40;;;1.15;;
15240;SDS011;7723;52.170;9.978;2022-07-01T04:40:50;1.60;;;1.17;;
15240;SDS011;7723;52.170;9.978;2022-07-01T04:43:31;1.70;;;1.13;;
15240;SDS011;7723;52.170;9.978;2022-07-01T04:45:58;4.13;;;1.23;;
15240;SDS011;7723;52.170;9.978;2022-07-01T04:48:25;1.73;;;1.25;;
15240;SDS011;7723;52.170;9.978;2022-07-01T04:50:52;3.03;;;1.50;;
15240;SDS011;7723;52.170;9.978;2022-07-01T04:53:19;1.50;;;1.13;;
15240;SDS011;7723;52.170;9.978;2022-07-01T04:55:46;1.10;;;1.00;;
15240;SDS011;7723;52.170;9.978;2022-07-01T04:58:15;1.80;;;1.05;;
15240;SDS011;7723;52.170;9.978;2022-07-01T05:00:42;1.52;;;1.42;;
15240;SDS011;7723;52.170;9.978;2022-07-01T05:03:09;2.30;;;1.70;;
15240;SDS011;7723;52.170;9.978;2022-07-01T05:05:36;3.25;;;1.30;;
15240;SDS011;7723;52.170;9.978;2022-07-01T05:08:03;2.13;;;1.27;;
15240;SDS011;7723;52.170;9.978;2022-07-01T05:10:31;4.00;;;1.30;;
15240;SDS011;7723;52.170;9.978;2022-07-01T05:12:58;2.22;;;1.30;;
15240;SDS011;7723;52.170;9.978;2022-07-01T05:15:26;2.08;;;1.35;;
15240;SDS011;7723;52.170;9.978;2022-07-01T05:17:54;1.67;;;1.40;;
15240;SDS011;7723;52.170;9.978;2022-07-01T05:20:38;2.00;;;1.40;;
15240;SDS011;7723;52.170;9.978;2022-07-01T05:23:23;2.75;;;1.63;;
15240;SDS011;7723;52.170;9.978;2022-07-01T05:25:50;2.67;;;1.60;;
15240;SDS011;7723;52.170;9.978;2022-07-01T05:28:17;1.50;;;1.38;;
15240;SDS011;7723;52.170;9.978;2022-07-01T05:30:46;3.33;;;1.55;;
15240;SDS011;7723;52.170;9.978;2022-07-01T05:33:13;3.50;;;1.60;;
15240;SDS011;7723;52.170;9.978;2022-07-01T05:35:40;2.53;;;1.45;;
15240;SDS011;7723;52.170;9.978;2022-07-01T05:38:07;2.80;;;1.38;;
15240;SDS011;7723;52.170;9.978;2022-07-01T05:40:34;3.05;;;1.50;;
15240;SDS011;7723;52.170;9.978;2022-07-01T05:43:01;3.35;;;1.83;;
15240;SDS011;7723;52.170;9.978;2022-07-01T05:45:28;1.58;;;1.20;;
15240;SDS011;7723;52.170;9.978;2022-07-01T05:47:57;2.20;;;1.42;;
15240;SDS011;7723;52.170;9.978;2022-07-01T05:50:24;3.00;;;1.60;;
15240;SDS011;7723;52.170;9.978;2022-07-01T05:52:51;2.95;;;1.42;;
15240;SDS011;7723;52.170;9.978;2022-07-01T05:55:18;1.83;;;1.63;;
15240;SDS011;7723;52.170;9.978;2022-07-01T05:57:45;2.47;;;1.52;;
15240;SDS011;7723;52.170;9.978;2022-07-01T06:00:13;4.15;;;1.88;;
15240;SDS011;7723;52.170;9.978;2022-07-01T06:02:41;3.20;;;1.42;;
15240;SDS011;7723;52.170;9.978;2022-07-01T06:05:10;1.67;;;1.52;;
15240;SDS011;7723;52.170;9.978;2022-07-01T06:07:39;3.33;;;2.00;;
15240;SDS011;7723;52.170;9.978;2022-07-01T06:10:07;2.30;;;1.88;;
15240;SDS011;7723;52.170;9.978;2022-07-01T06:12:35;2.80;;;2.08;;
15240;SDS011;7723;52.170;9.978;2022-07-01T06:15:02;2.15;;;1.83;;
15240;SDS011;7723;52.170;9.978;2022-07-01T06:17:30;2.00;;;1.35;;
15240;SDS011;7723;52.170;9.978;2022-07-01T06:19:57;1.83;;;1.67;;
15240;SDS011;7723;52.170;9.978;2022-07-01T06:22:25;3.35;;;2.08;;
15240;SDS011;7723;52.170;9.978;2022-07-01T06:24:52;3.22;;;1.83;;
15240;SDS011;7723;52.170;9.978;2022-07-01T06:27:19;3.70;;;1.95;;
15240;SDS011;7723;52.170;9.978;2022-07-01T06:29:46;2.42;;;2.00;;
15240;SDS011;7723;52.170;9.978;2022-07-01T06:32:14;3.55;;;2.28;;
15240;SDS011;7723;52.170;9.978;2022-07-01T06:34:41;4.15;;;2.28;;
15240;SDS011;7723;52.170;9.978;2022-07-01T06:37:08;2.55;;;2.00;;
15240;SDS011;7723;52.170;9.978;2022-07-01T06:39:36;3.13;;;2.25;;
15240;SDS011;7723;52.170;9.978;2022-07-01T06:42:04;2.65;;;2.13;;
15240;SDS011;7723;52.170;9.978;2022-07-01T06:44:31;2.72;;;2.17;;
15240;SDS011;7723;52.170;9.978;2022-07-01T06:46:59;3.22;;;2.40;;
15240;SDS011;7723;52.170;9.978;2022-07-01T06:49:26;3.50;;;2.60;;
15240;SDS011;7723;52.170;9.978;2022-07-01T06:51:53;5.72;;;2.95;;
15240;SDS011;7723;52.170;9.978;2022-07-01T06:54:20;4.05;;;2.47;;
15240;SDS011;7723;52.170;9.978;2022-07-01T06:56:49;3.38;;;2.70;;
15240;SDS011;7723;52.170;9.978;2022-07-01T06:59:16;3.33;;;2.80;;
15240;SDS011;7723;52.170;9.978;2022-07-01T07:01:43;4.10;;;3.17;;
15240;SDS011;7723;52.170;9.978;2022-07-01T07:04:10;3.65;;;2.95;;
15240;SDS011;7723;52.170;9.978;2022-07-01T07:06:37;3.55;;;2.80;;
15240;SDS011;7723;52.170;9.978;2022-07-01T07:09:04;4.18;;;2.80;;
15240;SDS011;7723;52.170;9.978;2022-07-01T07:11:31;4.45;;;2.65;;
15240;SDS011;7723;52.170;9.978;2022-07-01T07:14:00;4.70;;;3.00;;
15240;SDS011;7723;52.170;9.978;2022-07-01T07:16:27;3.85;;;3.42;;
15240;SDS011;7723;52.170;9.978;2022-07-01T07:18:54;5.55;;;3.25;;
15240;SDS011;7723;52.170;9.978;2022-07-01T07:21:21;4.60;;;3.30;;
15240;SDS011;7723;52.170;9.978;2022-07-01T07:23:48;4.95;;;3.10;;
15240;SDS011;7723;52.170;9.978;2022-07-01T07:26:15;4.20;;;3.47;;
15240;SDS011;7723;52.170;9.978;2022-07-01T07:28:42;4.40;;;3.85;;
15240;SDS011;7723;52.170;9.978;2022-07-01T07:31:11;5.05;;;3.70;;
15240;SDS011;7723;52.170;9.978;2022-07-01T07:33:38;5.40;;;3.95;;
15240;SDS011;7723;52.170;9.978;2022-07-01T07:36:05;4.95;;;3.95;;
15240;SDS011;7723;52.170;9.978;2022-07-01T07:38:32;5.25;;;4.20;;
15240;SDS011;7723;52.170;9.978;2022-07-01T07:41:00;6.55;;;3.83;;
15240;SDS011;7723;52.170;9.978;2022-07-01T07:43:29;5.35;;;4.18;;
15240;SDS011;7723;52.170;9.978;2022-07-01T07:45:56;5.50;;;4.38;;
15240;SDS011;7723;52.170;9.978;2022-07-01T07:48:24;4.80;;;4.05;;
15240;SDS011;7723;52.170;9.978;2022-07-01T07:50:52;6.70;;;4.22;;
15240;SDS011;7723;52.170;9.978;2022-07-01T07:53:19;7.10;;;4.75;;
15240;SDS011;7723;52.170;9.978;2022-07-01T07:55:46;6.47;;;5.20;;
15240;SDS011;7723;52.170;9.978;2022-07-01T07:58:13;6.00;;;4.43;;
15240;SDS011;7723;52.170;9.978;2022-07-01T08:00:40;5.47;;;4.50;;
15240;SDS011;7723;52.170;9.978;2022-07-01T08:03:07;7.03;;;4.60;;
15240;SDS011;7723;52.170;9.978;2022-07-01T08:05:35;6.35;;;4.18;;
15240;SDS011;7723;52.170;9.978;2022-07-01T08:08:03;5.32;;;4.43;;
15240;SDS011;7723;52.170;9.978;2022-07-01T08:10:30;6.13;;;4.72;;
15240;SDS011;7723;52.170;9.978;2022-07-01T08:12:58;6.13;;;4.25;;
15240;SDS011;7723;52.170;9.978;2022-07-01T08:15:29;4.90;;;4.07;;
15240;SDS011;7723;52.170;9.978;2022-07-01T08:17:56;6.40;;;4.43;;
15240;SDS011;7723;52.170;9.978;2022-07-01T08:20:23;6.45;;;4.70;;
15240;SDS011;7723;52.170;9.978;2022-07-01T08:22:52;6.30;;;4.38;;
15240;SDS011;7723;52.170;9.978;2022-07-01T08:25:19;6.50;;;4.82;;
15240;SDS011;7723;52.170;9.978;2022-07-01T08:27:46;6.70;;;4.88;;
15240;SDS011;7723;52.170;9.978;2022-07-01T08:30:13;7.90;;;5.65;;
15240;SDS011;7723;52.170;9.978;2022-07-01T08:32:40;6.47;;;4.95;;
15240;SDS011;7723;52.170;9.978;2022-07-01T08:35:08;8.32;;;5.13;;
15240;SDS011;7723;52.170;9.978;2022-07-01T08:37:35;6.20;;;4.82;;
15240;SDS011;7723;52.170;9.978;2022-07-01T08:40:04;8.25;;;4.93;;
15240;SDS011;7723;52.170;9.978;2022-07-01T08:42:32;7.78;;;4.95;;
15240;SDS011;7723;52.170;9.978;2022-07-01T08:45:00;6.82;;;4.60;;
15240;SDS011;7723;52.170;9.978;2022-07-01T08:47:27;5.60;;;3.85;;
15240;SDS011;7723;52.170;9.978;2022-07-01T08:49:54;5.35;;;3.55;;
15240;SDS011;7723;52.170;9.978;2022-07-01T08:52:21;4.85;;;3.53;;
15240;SDS011;7723;52.170;9.978;2022-07-01T08:54:49;4.38;;;3.75;;
15240;SDS011;7723;52.170;9.978;2022-07-01T08:57:21;4.45;;;3.53;;
15240;SDS011;7723;52.170;9.978;2022-07-01T08:59:59;4.63;;;3.80;;
15240;SDS011;7723;52.170;9.978;2022-07-01T09:02:28;5.03;;;4.07;;
15240;SDS011;7723;52.170;9.978;2022-07-01T09:05:16;6.68;;;4.50;;
15240;SDS011;7723;52.170;9.978;2022-07-01T09:07:43;6.32;;;4.07;;
15240;SDS011;7723;52.170;9.978;2022-07-01T09:10:14;9.18;;;4.18;;
15240;SDS011;7723;52.170;9.978;2022-07-01T09:12:45;7.25;;;4.70;;
15240;SDS011;7723;52.170;9.978;2022-07-01T09:15:20;5.18;;;3.95;;
15240;SDS011;7723;52.170;9.978;2022-07-01T09:17:50;6.32;;;4.40;;
15240;SDS011;7723;52.170;9.978;2022-07-01T09:20:24;5.90;;;4.43;;
15240;SDS011;7723;52.170;9.978;2022-07-01T09:23:03;9.10;;;5.05;;
15240;SDS011;7723;52.170;9.978;2022-07-01T09:25:33;6.15;;;4.15;;
15240;SDS011;7723;52.170;9.978;2022-07-01T09:28:10;4.85;;;3.53;;
15240;SDS011;7723;52.170;9.978;2022-07-01T09:30:39;8.15;;;5.05;;
15240;SDS011;7723;52.170;9.978;2022-07-01T09:33:08;5.10;;;4.47;;
15240;SDS011;7723;52.170;9.978;2022-07-01T09:35:37;6.07;;;4.40;;
15240;SDS011;7723;52.170;9.978;2022-07-01T09:38:06;4.90;;;4.07;;
15240;SDS011;7723;52.170;9.978;2022-07-01T09:40:53;6.75;;;4.65;;
15240;SDS011;7723;52.170;9.978;2022-07-01T09:43:23;4.25;;;3.83;;
15240;SDS011;7723;52.170;9.978;2022-07-01T09:45:56;4.55;;;4.03;;
15240;SDS011;7723;52.170;9.978;2022-07-01T09:48:25;5.40;;;4.18;;
15240;SDS011;7723;52.170;9.978;2022-07-01T09:51:07;6.10;;;4.43;;
15240;SDS011;7723;52.170;9.978;2022-07-01T09:53:35;6.72;;;4.40;;
15240;SDS011;7723;52.170;9.978;2022-07-01T09:56:03;5.45;;;4.55;;
15240;SDS011;7723;52.170;9.978;2022-07-01T09:58:32;4.32;;;3.55;;
15240;SDS011;7723;52.170;9.978;2022-07-01T10:01:01;5.53;;;4.15;;
15240;SDS011;7723;52.170;9.978;2022-07-01T10:03:29;5.05;;;4.30;;
15240;SDS011;7723;52.170;9.978;2022-07-01T10:06:03;5.25;;;4.50;;
15240;SDS011;7723;52.170;9.978;2022-07-01T10:08:46;5.85;;;4.43;;
15240;SDS011;7723;52.170;9.978;2022-07-01T10:14:27;5.32;;;4.35;;
15240;SDS011;7723;52.170;9.978;2022-07-01T10:16:56;5.72;;;4.70;;
15240;SDS011;7723;52.170;9.978;2022-07-01T10:19:24;5.07;;;4.05;;
15240;SDS011;7723;52.170;9.978;2022-07-01T10:21:52;6.60;;;4.95;;
15240;SDS011;7723;52.170;9.978;2022-07-01T10:24:22;6.10;;;4.50;;
15240;SDS011;7723;52.170;9.978;2022-07-01T10:26:51;8.35;;;5.00;;
15240;SDS011;7723;52.170;9.978;2022-07-01T10:29:29;5.63;;;4.43;;
15240;SDS011;7723;52.170;9.978;2022-07-01T10:32:07;6.10;;;4.55;;
15240;SDS011;7723;52.170;9.978;2022-07-01T10:34:37;4.95;;;4.28;;
15240;SDS011;7723;52.170;9.978;2022-07-01T10:37:06;5.05;;;4.00;;
15240;SDS011;7723;52.170;9.978;2022-07-01T10:39:54;4.43;;;3.85;;
15240;SDS011;7723;52.170;9.978;2022-07-01T10:42:27;5.53;;;4.22;;
15240;SDS011;7723;52.170;9.978;2022-07-01T10:45:00;5.10;;;4.03;;
15240;SDS011;7723;52.170;9.978;2022-07-01T10:47:34;4.22;;;3.50;;
15240;SDS011;7723;52.170;9.978;2022-07-01T10:50:03;5.35;;;4.75;;
15240;SDS011;7723;52.170;9.978;2022-07-01T10:52:35;4.68;;;4.18;;
15240;SDS011;7723;52.170;9.978;2022-07-01T10:55:05;6.30;;;4.53;;
15240;SDS011;7723;52.170;9.978;2022-07-01T10:57:39;5.63;;;3.92;;
15240;SDS011;7723;52.170;9.978;2022-07-01T11:00:30;6.13;;;4.60;;
15240;SDS011;7723;52.170;9.978;2022-07-01T11:03:19;7.40;;;5.55;;
15240;SDS011;7723;52.170;9.978;2022-07-01T11:05:49;8.00;;;5.43;;
15240;SDS011;7723;52.170;9.978;2022-07-01T11:08:18;7.70;;;5.05;;
15240;SDS011;7723;52.170;9.978;2022-07-01T11:10:49;6.60;;;4.93;;
15240;SDS011;7723;52.170;9.978;2022-07-01T11:13:18;6.32;;;4.68;;
15240;SDS011;7723;52.170;9.978;2022-07-01T11:15:47;8.38;;;5.45;;
15240;SDS011;7723;52.170;9.978;2022-07-01T11:18:15;7.32;;;5.15;;
15240;SDS011;7723;52.170;9.978;2022-07-01T11:20:43;6.82;;;6.05;;
15240;SDS011;7723;52.170;9.978;2022-07-01T11:23:11;7.88;;;5.80;;
15240;SDS011;7723;52.170;9.978;2022-07-01T11:25:38;6.93;;;5.43;;
15240;SDS011;7723;52.170;9.978;2022-07-01T11:28:06;6.35;;;5.40;;
15240;SDS011;7723;52.170;9.978;2022-07-01T11:30:33;5.97;;;4.78;;
15240;SDS011;7723;52.170;9.978;2022-07-01T11:33:02;7.07;;;5.47;;
15240;SDS011;7723;52.170;9.978;2022-07-01T11:35:29;8.40;;;5.50;;
15240;SDS011;7723;52.170;9.978;2022-07-01T11:38:15;7.00;;;5.68;;
15240;SDS011;7723;52.170;9.978;2022-07-01T11:41:02;5.70;;;5.10;;
15240;SDS011;7723;52.170;9.978;2022-07-01T11:43:31;7.95;;;5.13;;
15240;SDS011;7723;52.170;9.978;2022-07-01T11:46:01;8.00;;;5.07;;
15240;SDS011;7723;52.170;9.978;2022-07-01T11:48:32;5.43;;;4.75;;
15240;SDS011;7723;52.170;9.978;2022-07-01T11:51:11;7.30;;;5.25;;
15240;SDS011;7723;52.170;9.978;2022-07-01T11:53:40;6.32;;;5.25;;
15240;SDS011;7723;52.170;9.978;2022-07-01T11:56:09;5.30;;;4.63;;
15240;SDS011;7723;52.170;9.978;2022-07-01T11:58:40;5.53;;;4.60;;
15240;SDS011;7723;52.170;9.978;2022-07-01T12:01:08;5.22;;;4.72;;
15240;SDS011;7723;52.170;9.978;2022-07-01T12:03:37;7.45;;;4.88;;
15240;SDS011;7723;52.170;9.978;2022-07-01T12:06:04;4.35;;;3.95;;
15240;SDS011;7723;52.170;9.978;2022-07-01T12:08:32;6.72;;;4.97;;
15240;SDS011;7723;52.170;9.978;2022-07-01T12:10:59;4.72;;;4.32;;
15240;SDS011;7723;52.170;9.978;2022-07-01T12:13:27;7.70;;;4.78;;
15240;SDS011;7723;52.170;9.978;2022-07-01T12:15:54;7.65;;;4.85;;
15240;SDS011;7723;52.170;9.978;2022-07-01T12:18:32;6.03;;;5.00;;
15240;SDS011;7723;52.170;9.978;2022-07-01T12:21:01;6.22;;;4.80;;
15240;SDS011;7723;52.170;9.978;2022-07-01T12:23:28;7.07;;;4.78;;
15240;SDS011;7723;52.170;9.978;2022-07-01T12:25:57;5.93;;;5.03;;
15240;SDS011;7723;52.170;9.978;2022-07-01T12:28:25;5.15;;;4.47;;
15240;SDS011;7723;52.170;9.978;2022-07-01T12:31:04;5.78;;;4.97;;
15240;SDS011;7723;52.170;9.978;2022-07-01T12:33:36;7.75;;;5.47;;
15240;SDS011;7723;52.170;9.978;2022-07-01T12:36:06;7.90;;;6.05;;
15240;SDS011;7723;52.170;9.978;2022-07-01T12:38:34;6.95;;;5.38;;
15240;SDS011;7723;52.170;9.978;2022-07-01T12:41:01;7.00;;;5.40;;
15240;SDS011;7723;52.170;9.978;2022-07-01T12:43:29;5.85;;;4.97;;
15240;SDS011;7723;52.170;9.978;2022-07-01T12:45:58;6.25;;;5.30;;
15240;SDS011;7723;52.170;9.978;2022-07-01T12:48:26;5.88;;;5.28;;
15240;SDS011;7723;52.170;9.978;2022-07-01T12:50:54;6.03;;;4.50;;
15240;SDS011;7723;52.170;9.978;2022-07-01T12:53:24;5.97;;;5.38;;
15240;SDS011;7723;52.170;9.978;2022-07-01T12:55:52;6.22;;;5.32;;
15240;SDS011;7723;52.170;9.978;2022-07-01T12:58:21;5.72;;;4.60;;
15240;SDS011;7723;52.170;9.978;2022-07-01T13:00:51;5.70;;;4.75;;
15240;SDS011;7723;52.170;9.978;2022-07-01T13:03:20;5.00;;;4.50;;
15240;SDS011;7723;52.170;9.978;2022-07-01T13:05:49;4.85;;;4.32;;
15240;SDS011;7723;52.170;9.978;2022-07-01T13:08:17;6.28;;;5.03;;
15240;SDS011;7723;52.170;9.978;2022-07-01T13:10:46;4.97;;;4.47;;
15240;SDS011;7723;52.170;9.978;2022-07-01T13:13:15;7.82;;;5.07;;
15240;SDS011;7723;52.170;9.978;2022-07-01T13:15:43;6.05;;;5.25;;
15240;SDS011;7723;52.170;9.978;2022-07-01T13:18:10;4.53;;;4.03;;
15240;SDS011;7723;52.170;9.978;2022-07-01T13:20:39;5.90;;;4.28;;
15240;SDS011;7723;52.170;9.978;2022-07-01T13:23:06;5.25;;;4.40;;
15240;SDS011;7723;52.170;9.978;2022-07-01T13:25:34;5.70;;;4.20;;
15240;SDS011;7723;52.170;9.978;2022-07-01T13:28:03;4.95;;;4.20;;
15240;SDS011;7723;52.170;9.978;2022-07-01T13:30:30;5.45;;;4.18;;
15240;SDS011;7723;52.170;9.978;2022-07-01T13:32:58;4.45;;;4.05;;
15240;SDS011;7723;52.170;9.978;2022-07-01T13:35:25;6.13;;;4.57;;
15240;SDS011;7723;52.170;9.978;2022-07-01T13:37:52;5.25;;;4.13;;
15240;SDS011;7723;52.170;9.978;2022-07-01T13:40:20;6.45;;;4.07;;
15240;SDS011;7723;52.170;9.978;2022-07-01T13:42:48;4.65;;;4.25;;
15240;SDS011;7723;52.170;9.978;2022-07-01T13:45:17;4.85;;;4.40;;
15240;SDS011;7723;52.170;9.978;2022-07-01T13:47:44;5.78;;;4.15;;
15240;SDS011;7723;52.170;9.978;2022-07-01T13:50:11;5.05;;;4.55;;
15240;SDS011;7723;52.170;9.978;2022-07-01T13:52:40;4.78;;;4.22;;
15240;SDS011;7723;52.170;9.978;2022-07-01T13:55:07;4.65;;;4.25;;
15240;SDS011;7723;52.170;9.978;2022-07-01T13:57:34;5.95;;;4.25;;
15240;SDS011;7723;52.170;9.978;2022-07-01T14:00:02;5.32;;;4.53;;
15240;SDS011;7723;52.170;9.978;2022-07-01T14:02:32;6.13;;;4.43;;
15240;SDS011;7723;52.170;9.978;2022-07-01T14:04:59;4.40;;;4.00;;
15240;SDS011;7723;52.170;9.978;2022-07-01T14:07:27;4.40;;;4.00;;
15240;SDS011;7723;52.170;9.978;2022-07-01T14:09:54;5.20;;;4.75;;
15240;SDS011;7723;52.170;9.978;2022-07-01T14:12:21;4.80;;;4.30;;
15240;SDS011;7723;52.170;9.978;2022-07-01T14:14:48;5.22;;;4.28;;
15240;SDS011;7723;52.170;9.978;2022-07-01T14:17:15;5.65;;;4.30;;
15240;SDS011;7723;52.170;9.978;2022-07-01T14:19:44;5.95;;;5.35;;
15240;SDS011;7723;52.170;9.978;2022-07-01T14:22:11;4.82;;;4.38;;
15240;SDS011;7723;52.170;9.978;2022-07-01T14:24:38;5.97;;;5.32;;
15240;SDS011;7723;52.170;9.978;2022-07-01T14:27:05;6.70;;;5.55;;
15240;SDS011;7723;52.170;9.978;2022-07-01T14:29:32;7.10;;;5.65;;
15240;SDS011;7723;52.170;9.978;2022-07-01T14:31:59;5.65;;;5.03;;
15240;SDS011;7723;52.170;9.978;2022-07-01T14:34:27;7.95;;;5.32;;
15240;SDS011;7723;52.170;9.978;2022-07-01T14:36:55;6.53;;;5.22;;
15240;SDS011;7723;52.170;9.978;2022-07-01T14:39:22;7.05;;;5.68;;
15240;SDS011;7723;52.170;9.978;2022-07-01T14:41:49;6.75;;;5.90;;
15240;SDS011;7723;52.170;9.978;2022-07-01T14:44:17;6.38;;;5.78;;
15240;SDS011;7723;52.170;9.978;2022-07-01T14:46:44;6.88;;;6.18;;
15240;SDS011;7723;52.170;9.978;2022-07-01T14:49:11;6.15;;;5.53;;
15240;SDS011;7723;52.170;9.978;2022-07-01T14:51:41;6.07;;;5.07;;
15240;SDS011;7723;52.170;9.978;2022-07-01T14:54:09;6.93;;;5.55;;
15240;SDS011;7723;52.170;9.978;2022-07-01T14:56:37;5.60;;;5.03;;
15240;SDS011;7723;52.170;9.978;2022-07-01T14:59:04;5.63;;;4.40;;
15240;SDS011;7723;52.170;9.978;2022-07-01T15:01:31;4.95;;;4.43;;
15240;SDS011;7723;52.170;9.978;2022-07-01T15:03:58;4.25;;;3.85;;
15240;SDS011;7723;52.170;9.978;2022-07-01T15:06:25;5.25;;;3.63;;
15240;SDS011;7723;52.170;9.978;2022-07-01T15:08:53;3.65;;;3.33;;
15240;SDS011;7723;52.170;9.978;2022-07-01T15:11:21;3.80;;;3.38;;
15240;SDS011;7723;52.170;9.978;2022-07-01T15:13:48;4.63;;;3.38;;